Terminal Aerodrome Forecast
Issued by NWS Shreveport, LA

Home | Current Version | Previous Version | Text Only | Print | Product List | Glossary On
Versions: 1 2 3 4 5 6 7 8 9 10 11 12 13 14
565
FTUS44 KSHV 212019 AAA
TAFTYR
TAF AMD
KTYR 212019Z 2120/2218 14004KT P6SM VCTS SCT045CB
     FM212200 14007KT P6SM VCTS BKN060CB BKN250
     FM220000 18005KT P6SM SCT060 SCT250
     FM221200 20004KT 6SM BR SCT020
     FM221400 21006KT P6SM SCT250=

USA.gov is the U.S. government's official web portal to all federal, state and local government web resources and services.